createdAt,value
2023-09-01T00:02:17.988Z,4.85
2023-09-01T00:05:19.325Z,4.22
2023-09-01T00:08:20.664Z,4.43
2023-09-01T00:11:22.016Z,4.57
2023-09-01T00:14:23.369Z,4.65
2023-09-01T00:17:24.750Z,4.82
2023-09-01T00:20:26.093Z,4.35
2023-09-01T00:23:27.425Z,4.40
2023-09-01T00:26:28.797Z,4.33
2023-09-01T00:29:30.134Z,4.18
2023-09-01T00:32:31.500Z,6.35
2023-09-01T00:35:32.872Z,3.83
2023-09-01T00:38:34.250Z,4.25
2023-09-01T00:41:35.600Z,4.63
2023-09-01T00:44:36.973Z,5.53
2023-09-01T00:47:38.342Z,4.25
2023-09-01T00:50:39.724Z,3.75
2023-09-01T00:53:41.043Z,5.38
2023-09-01T00:56:42.388Z,4.63
2023-09-01T00:59:43.739Z,3.30
2023-09-01T01:02:45.187Z,3.97
2023-09-01T01:05:46.613Z,4.35
2023-09-01T01:08:47.957Z,3.97
2023-09-01T01:11:49.326Z,3.87
2023-09-01T01:14:50.677Z,3.83
2023-09-01T01:17:52.048Z,4.18
2023-09-01T01:20:53.398Z,4.10
2023-09-01T01:23:54.728Z,4.05
2023-09-01T01:26:56.071Z,3.87
2023-09-01T01:29:57.420Z,4.22
2023-09-01T01:32:58.772Z,3.47
2023-09-01T01:36:00.138Z,6.35
2023-09-01T01:39:01.524Z,4.47
2023-09-01T01:42:02.896Z,4.90
2023-09-01T01:45:04.241Z,5.05
2023-09-01T01:48:05.616Z,4.40
2023-09-01T01:51:07.002Z,4.75
2023-09-01T01:54:08.333Z,4.45
2023-09-01T01:57:09.678Z,4.63
2023-09-01T02:00:11.028Z,4.10
2023-09-01T02:03:12.371Z,4.47
2023-09-01T02:06:13.716Z,4.00
2023-09-01T02:09:15.073Z,4.00
2023-09-01T02:12:16.415Z,4.17
2023-09-01T02:15:17.772Z,3.45
2023-09-01T02:18:19.113Z,5.03
2023-09-01T02:21:20.461Z,4.38
2023-09-01T02:24:21.814Z,3.90
2023-09-01T02:27:23.133Z,3.80
2023-09-01T02:30:24.467Z,3.28
2023-09-01T02:33:25.814Z,4.50
2023-09-01T02:36:27.163Z,3.90
2023-09-01T02:39:29.100Z,4.00
2023-09-01T02:42:30.446Z,4.50
2023-09-01T02:45:31.792Z,4.25
2023-09-01T02:48:33.145Z,4.85
2023-09-01T02:51:34.520Z,3.70
2023-09-01T02:54:35.854Z,4.57
2023-09-01T02:57:37.191Z,3.70
2023-09-01T03:00:38.553Z,4.07
2023-09-01T03:03:40.194Z,4.78
2023-09-01T03:06:41.655Z,5.15
2023-09-01T03:09:43.004Z,4.10
2023-09-01T03:12:44.366Z,4.67
2023-09-01T03:15:45.708Z,4.10
2023-09-01T03:18:47.075Z,5.60
2023-09-01T03:21:48.395Z,4.03
2023-09-01T03:24:49.800Z,4.43
2023-09-01T03:27:51.199Z,4.60
2023-09-01T03:30:52.554Z,3.67
2023-09-01T03:33:53.904Z,4.57
2023-09-01T03:36:55.233Z,5.10
2023-09-01T03:39:56.572Z,8.05
2023-09-01T03:42:57.913Z,3.53
2023-09-01T03:45:59.339Z,4.70
2023-09-01T03:49:00.690Z,5.03
2023-09-01T03:52:02.066Z,4.53
2023-09-01T03:55:03.431Z,4.20
2023-09-01T03:58:04.772Z,3.90
2023-09-01T04:01:06.140Z,3.97
2023-09-01T04:04:07.501Z,3.75
2023-09-01T04:07:08.850Z,5.07
2023-09-01T04:10:10.235Z,4.32
2023-09-01T04:13:11.620Z,5.07
2023-09-01T04:16:12.975Z,6.10
2023-09-01T04:19:14.407Z,3.83
2023-09-01T04:22:15.759Z,4.63
2023-09-01T04:25:17.133Z,3.90
2023-09-01T04:28:18.460Z,5.10
2023-09-01T04:31:19.856Z,5.38
2023-09-01T04:34:21.215Z,7.60
2023-09-01T04:37:22.561Z,8.90
2023-09-01T04:40:23.906Z,5.47
2023-09-01T04:43:25.239Z,4.73
2023-09-01T04:46:26.604Z,5.03
2023-09-01T04:49:27.938Z,4.32
2023-09-01T04:52:41.007Z,5.63
2023-09-01T04:55:44.310Z,4.22
2023-09-01T04:58:45.644Z,12.53
2023-09-01T05:01:46.981Z,6.32
2023-09-01T05:04:48.367Z,6.25
2023-09-01T05:07:49.721Z,4.95
2023-09-01T05:10:51.076Z,7.22
2023-09-01T05:13:52.412Z,9.10
2023-09-01T05:16:53.797Z,9.18
2023-09-01T05:19:55.174Z,7.88
2023-09-01T05:22:56.517Z,6.05
2023-09-01T05:25:57.885Z,6.03
2023-09-01T05:28:59.259Z,5.83
2023-09-01T05:32:00.650Z,5.82
2023-09-01T05:35:02.019Z,5.05
2023-09-01T05:38:03.385Z,6.13
2023-09-01T05:41:04.740Z,6.35
2023-09-01T05:44:06.066Z,8.83
2023-09-01T05:47:07.444Z,6.20
2023-09-01T05:50:08.797Z,9.00
2023-09-01T05:53:10.231Z,7.95
2023-09-01T05:56:11.569Z,7.55
2023-09-01T05:59:12.916Z,9.77
2023-09-01T06:02:14.304Z,53.05
2023-09-01T06:05:15.650Z,20.05
2023-09-01T06:08:17.257Z,12.13
2023-09-01T06:11:18.772Z,26.02
2023-09-01T06:14:20.122Z,14.07
2023-09-01T06:17:32.504Z,17.58
2023-09-01T06:20:37.824Z,11.85
2023-09-01T06:23:40.408Z,7.70
2023-09-01T06:26:41.747Z,6.05
2023-09-01T06:29:43.082Z,6.33
2023-09-01T06:32:45.588Z,7.40
2023-09-01T06:35:49.253Z,8.65
2023-09-01T06:38:50.669Z,4.57
2023-09-01T06:41:52.035Z,6.93
2023-09-01T06:44:53.387Z,9.20
2023-09-01T06:47:54.748Z,8.95
2023-09-01T06:50:56.125Z,13.98
2023-09-01T06:53:57.496Z,13.05
2023-09-01T06:56:58.817Z,13.32
2023-09-01T07:00:00.166Z,11.03
2023-09-01T07:03:01.562Z,7.93
2023-09-01T07:06:02.968Z,10.27
2023-09-01T07:09:04.350Z,7.05
2023-09-01T07:12:05.705Z,8.80
2023-09-01T07:15:07.083Z,12.03
2023-09-01T07:18:08.458Z,6.03
2023-09-01T07:21:09.937Z,6.15
2023-09-01T07:24:11.252Z,4.80
2023-09-01T07:27:12.600Z,17.33
2023-09-01T07:30:13.960Z,9.53
2023-09-01T07:33:15.325Z,14.60
2023-09-01T07:36:17.324Z,8.60
2023-09-01T07:39:19.865Z,10.07
2023-09-01T07:42:21.222Z,11.68
2023-09-01T07:45:22.608Z,10.67
2023-09-01T07:48:24.147Z,8.10
2023-09-01T07:51:25.689Z,8.82
2023-09-01T07:54:29.208Z,12.43
2023-09-01T07:57:30.614Z,5.25
2023-09-01T08:00:31.967Z,7.67
2023-09-01T08:03:33.407Z,5.07
2023-09-01T08:06:34.827Z,7.15
2023-09-01T08:09:36.282Z,9.13
2023-09-01T08:12:39.441Z,5.75
2023-09-01T08:15:41.694Z,5.50
2023-09-01T08:18:43.083Z,6.97
2023-09-01T08:21:44.440Z,5.25
2023-09-01T08:24:45.819Z,6.82
2023-09-01T08:27:47.393Z,7.22
2023-09-01T08:30:48.751Z,8.60
2023-09-01T08:33:50.150Z,5.68
2023-09-01T08:36:51.506Z,12.93
2023-09-01T08:39:52.860Z,24.40
2023-09-01T08:42:54.226Z,18.38
2023-09-01T08:46:04.847Z,22.70
2023-09-01T08:49:15.083Z,22.17
2023-09-01T08:52:16.455Z,20.20
2023-09-01T08:55:17.809Z,19.35
2023-09-01T08:58:19.183Z,19.17
2023-09-01T09:01:20.707Z,28.57
2023-09-01T09:04:22.212Z,31.30
2023-09-01T09:07:23.652Z,33.15
2023-09-01T09:10:25.005Z,16.23
2023-09-01T09:13:26.353Z,18.20
2023-09-01T09:16:27.870Z,17.77
2023-09-01T09:19:29.305Z,7.75
2023-09-01T09:22:30.685Z,19.42
2023-09-01T09:25:32.054Z,12.95
2023-09-01T09:28:33.452Z,12.98
2023-09-01T09:31:34.810Z,11.60
2023-09-01T09:34:36.275Z,26.88
2023-09-01T09:37:37.604Z,59.25
2023-09-01T09:40:38.952Z,33.95
2023-09-01T09:43:40.311Z,32.58
2023-09-01T09:46:41.704Z,43.33
2023-09-01T09:49:43.084Z,19.92
2023-09-01T09:52:44.409Z,30.33
2023-09-01T09:55:45.748Z,27.48
2023-09-01T09:58:47.101Z,19.73
2023-09-01T10:01:48.612Z,9.43
2023-09-01T10:04:50.526Z,16.83
2023-09-01T10:07:51.907Z,15.93
2023-09-01T10:10:53.275Z,15.50
2023-09-01T10:13:54.593Z,14.45
2023-09-01T10:16:55.950Z,14.67
2023-09-01T10:19:57.303Z,11.85
2023-09-01T10:22:58.630Z,11.48
2023-09-01T10:25:59.974Z,6.95
2023-09-01T10:29:01.431Z,6.70
2023-09-01T10:32:02.818Z,8.47
2023-09-01T10:35:04.258Z,5.85
2023-09-01T10:38:05.627Z,11.65
2023-09-01T10:41:06.988Z,6.00
2023-09-01T10:44:08.343Z,7.10
2023-09-01T10:47:09.685Z,7.27
2023-09-01T10:50:11.034Z,3.42
2023-09-01T10:53:12.386Z,6.00
2023-09-01T10:56:13.730Z,5.28
2023-09-01T10:59:15.088Z,3.92
2023-09-01T11:02:16.486Z,7.23
2023-09-01T11:05:17.869Z,16.08
2023-09-01T11:08:19.491Z,8.38
2023-09-01T11:11:20.957Z,5.55
2023-09-01T11:14:22.337Z,10.43
2023-09-01T11:17:23.678Z,5.87
2023-09-01T11:20:25.026Z,7.95
2023-09-01T11:23:26.408Z,11.27
2023-09-01T11:26:29.792Z,17.30
2023-09-01T11:29:31.537Z,6.43
2023-09-01T11:32:32.920Z,13.53
2023-09-01T11:35:34.292Z,10.45
2023-09-01T11:38:35.699Z,8.73
2023-09-01T11:41:37.088Z,11.48
2023-09-01T11:44:38.439Z,8.23
2023-09-01T11:47:39.780Z,5.53
2023-09-01T11:50:41.125Z,11.93
2023-09-01T11:53:42.480Z,5.53
2023-09-01T11:56:43.822Z,4.10
2023-09-01T11:59:45.180Z,5.18
2023-09-01T12:02:46.557Z,6.47
2023-09-01T12:05:47.951Z,7.25
2023-09-01T12:08:49.435Z,6.00
2023-09-01T12:11:50.858Z,6.80
2023-09-01T12:14:52.244Z,5.90
2023-09-01T12:17:53.668Z,6.73
2023-09-01T12:20:55.096Z,5.85
2023-09-01T12:23:56.477Z,5.57
2023-09-01T12:26:57.864Z,4.53
2023-09-01T12:29:59.319Z,7.45
2023-09-01T12:33:00.753Z,3.83
2023-09-01T12:36:02.140Z,6.13
2023-09-01T12:39:03.516Z,4.85
2023-09-01T12:42:04.994Z,4.82
2023-09-01T12:45:06.409Z,5.07
2023-09-01T12:48:07.775Z,5.20
2023-09-01T12:51:09.137Z,5.38
2023-09-01T12:54:10.469Z,6.55
2023-09-01T12:57:11.942Z,4.93
2023-09-01T13:00:13.316Z,4.55
2023-09-01T13:03:15.034Z,6.33
2023-09-01T13:06:16.644Z,4.55
2023-09-01T13:09:17.999Z,7.47
2023-09-01T13:12:19.373Z,5.53
2023-09-01T13:15:20.697Z,4.95
2023-09-01T13:18:22.154Z,8.60
2023-09-01T13:21:23.586Z,5.65
2023-09-01T13:24:24.907Z,7.38
2023-09-01T13:27:26.444Z,3.90
2023-09-01T13:30:27.828Z,3.75
2023-09-01T13:33:29.252Z,10.67
2023-09-01T13:36:30.693Z,4.95
2023-09-01T13:39:32.108Z,9.07
2023-09-01T13:42:33.465Z,15.27
2023-09-01T13:45:34.830Z,11.75
2023-09-01T13:48:36.158Z,7.40
2023-09-01T13:51:37.510Z,6.18
2023-09-01T13:54:38.850Z,5.32
2023-09-01T13:57:40.250Z,9.02
2023-09-01T14:00:41.626Z,12.20
2023-09-01T14:03:43.075Z,7.27
2023-09-01T14:06:44.578Z,9.25
2023-09-01T14:09:45.944Z,6.55
2023-09-01T14:12:47.309Z,7.18
2023-09-01T14:15:48.671Z,10.10
2023-09-01T14:18:49.997Z,6.20
2023-09-01T14:21:51.388Z,5.43
2023-09-01T14:24:52.782Z,6.63
2023-09-01T14:27:54.176Z,5.05
2023-09-01T14:30:55.619Z,7.50
2023-09-01T14:33:57.331Z,5.23
2023-09-01T14:36:58.799Z,7.93
2023-09-01T14:40:00.252Z,5.22
2023-09-01T14:43:01.608Z,5.97
2023-09-01T14:46:03.041Z,7.70
2023-09-01T14:49:04.433Z,5.50
2023-09-01T14:52:05.821Z,4.68
2023-09-01T14:55:07.167Z,6.03
2023-09-01T14:58:08.519Z,9.00
2023-09-01T15:01:09.882Z,7.00
2023-09-01T15:04:11.340Z,5.87
2023-09-01T15:07:12.705Z,4.82
2023-09-01T15:10:14.033Z,5.78
2023-09-01T15:13:15.688Z,7.85
2023-09-01T15:16:17.212Z,7.70
2023-09-01T15:19:18.559Z,7.53
2023-09-01T15:22:19.899Z,5.80
2023-09-01T15:25:21.250Z,7.85
2023-09-01T15:28:22.581Z,6.40
2023-09-01T15:31:23.995Z,6.18
2023-09-01T15:34:25.362Z,4.33
2023-09-01T15:37:26.710Z,6.05
2023-09-01T15:40:28.130Z,6.95
2023-09-01T15:43:29.603Z,5.90
2023-09-01T15:46:30.971Z,5.88
2023-09-01T15:49:32.348Z,6.17
2023-09-01T15:52:33.712Z,5.32
2023-09-01T15:55:35.204Z,5.60
2023-09-01T15:58:36.523Z,4.93
2023-09-01T16:01:37.889Z,3.97
2023-09-01T16:04:39.326Z,6.83
2023-09-01T16:07:40.746Z,6.35
2023-09-01T16:10:42.128Z,5.95
2023-09-01T16:13:43.456Z,6.13
2023-09-01T16:16:44.822Z,4.13
2023-09-01T16:19:46.153Z,3.90
2023-09-01T16:22:47.511Z,4.78
2023-09-01T16:25:48.849Z,4.43
2023-09-01T16:28:50.223Z,3.60
2023-09-01T16:31:51.555Z,2.80
2023-09-01T16:34:52.885Z,5.07
2023-09-01T16:37:54.213Z,4.10
2023-09-01T16:40:55.572Z,4.93
2023-09-01T16:43:56.936Z,6.68
2023-09-01T16:46:58.319Z,4.72
2023-09-01T16:49:59.671Z,5.60
2023-09-01T16:53:01.011Z,4.25
2023-09-01T16:56:02.374Z,5.40
2023-09-01T16:59:03.738Z,4.13
2023-09-01T17:02:05.177Z,4.18
2023-09-01T17:05:06.567Z,4.07
2023-09-01T17:08:07.908Z,4.93
2023-09-01T17:11:09.272Z,5.32
2023-09-01T17:14:10.630Z,5.90
2023-09-01T17:17:11.968Z,3.80
2023-09-01T17:20:13.334Z,4.10
2023-09-01T17:23:14.913Z,5.25
2023-09-01T17:26:16.456Z,4.68
2023-09-01T17:29:17.803Z,3.50
2023-09-01T17:32:19.156Z,6.53
2023-09-01T17:35:20.497Z,3.87
2023-09-01T17:38:21.860Z,4.32
2023-09-01T17:41:23.195Z,3.97
2023-09-01T17:44:24.544Z,4.00
2023-09-01T17:47:25.963Z,4.15
2023-09-01T17:50:27.290Z,3.60
2023-09-01T17:53:28.642Z,4.45
2023-09-01T17:56:29.999Z,3.95
2023-09-01T17:59:31.353Z,3.58
2023-09-01T18:02:32.859Z,4.45
2023-09-01T18:05:34.265Z,7.03
2023-09-01T18:08:35.609Z,5.50
2023-09-01T18:11:36.982Z,5.35
2023-09-01T18:14:38.393Z,4.40
2023-09-01T18:17:39.738Z,4.47
2023-09-01T18:20:41.439Z,4.43
2023-09-01T18:23:43.057Z,3.78
2023-09-01T18:26:44.444Z,4.28
2023-09-01T18:29:45.805Z,4.18
2023-09-01T18:32:47.220Z,4.45
2023-09-01T18:35:48.609Z,4.20
2023-09-01T18:38:49.932Z,4.78
2023-09-01T18:41:51.376Z,4.57
2023-09-01T18:44:53.124Z,7.22
2023-09-01T18:47:54.665Z,5.20
2023-09-01T18:50:56.298Z,3.67
2023-09-01T18:53:57.937Z,4.00
2023-09-01T18:56:59.348Z,4.30
2023-09-01T19:00:01.443Z,4.63
2023-09-01T19:03:03.066Z,6.13
2023-09-01T19:06:04.478Z,3.90
2023-09-01T19:09:06.120Z,4.25
2023-09-01T19:12:07.863Z,4.68
2023-09-01T19:15:09.259Z,5.55
2023-09-01T19:18:10.991Z,4.43
2023-09-01T19:21:12.870Z,3.50
2023-09-01T19:24:14.705Z,3.72
2023-09-01T19:27:16.120Z,5.03
2023-09-01T19:30:17.461Z,4.55
2023-09-01T19:33:19.580Z,3.65
2023-09-01T19:36:21.304Z,5.83
2023-09-01T19:39:22.649Z,4.88
2023-09-01T19:42:24.399Z,4.15
2023-09-01T19:45:26.249Z,4.13
2023-09-01T19:48:27.688Z,4.85
2023-09-01T19:51:29.062Z,3.87
2023-09-01T19:54:30.429Z,5.10
2023-09-01T19:57:32.173Z,5.25
2023-09-01T20:00:33.649Z,4.28
2023-09-01T20:03:35.294Z,4.80
2023-09-01T20:06:36.866Z,4.10
2023-09-01T20:09:38.238Z,4.38
2023-09-01T20:12:39.956Z,4.03
2023-09-01T20:15:41.364Z,4.43
2023-09-01T20:18:43.028Z,4.90
2023-09-01T20:21:44.860Z,4.90
2023-09-01T20:24:46.316Z,3.83
2023-09-01T20:27:47.926Z,4.82
2023-09-01T20:30:49.483Z,4.53
2023-09-01T20:33:51.152Z,4.97
2023-09-01T20:36:52.624Z,4.30
2023-09-01T20:39:53.973Z,5.47
2023-09-01T20:42:55.316Z,4.90
2023-09-01T20:45:56.747Z,3.95
2023-09-01T20:48:58.124Z,4.47
2023-09-01T20:51:59.495Z,5.10
2023-09-01T20:55:00.830Z,4.25
2023-09-01T20:58:02.188Z,4.45
2023-09-01T21:01:03.533Z,4.57
2023-09-01T21:04:04.918Z,4.88
2023-09-01T21:07:06.284Z,4.53
2023-09-01T21:10:07.626Z,4.07
2023-09-01T21:13:08.962Z,4.38
2023-09-01T21:16:10.387Z,4.05
2023-09-01T21:19:11.765Z,5.13
2023-09-01T21:22:13.124Z,4.20
2023-09-01T21:25:14.468Z,4.00
2023-09-01T21:28:15.784Z,4.78
2023-09-01T21:31:17.209Z,3.60
2023-09-01T21:34:18.550Z,3.60
2023-09-01T21:37:19.902Z,5.07
2023-09-01T21:40:21.261Z,3.88
2023-09-01T21:43:22.642Z,4.57
2023-09-01T21:46:23.960Z,4.07
2023-09-01T21:49:25.318Z,3.90
2023-09-01T21:52:26.657Z,4.10
2023-09-01T21:55:28.016Z,3.63
2023-09-01T21:58:29.366Z,3.78
2023-09-01T22:01:30.794Z,3.35
2023-09-01T22:04:32.179Z,4.70
2023-09-01T22:07:33.496Z,4.13
2023-09-01T22:10:34.861Z,4.25
2023-09-01T22:13:36.194Z,4.47
2023-09-01T22:16:37.579Z,4.13
2023-09-01T22:19:38.967Z,4.60
2023-09-01T22:22:40.331Z,5.00
2023-09-01T22:25:41.773Z,4.68
2023-09-01T22:28:43.116Z,4.65
2023-09-01T22:31:44.452Z,5.53
2023-09-01T22:34:45.796Z,4.75
2023-09-01T22:37:49.030Z,4.68
2023-09-01T22:40:53.640Z,4.80
2023-09-01T22:43:54.959Z,5.32
2023-09-01T22:46:56.293Z,4.33
2023-09-01T22:49:57.632Z,4.60
2023-09-01T22:52:58.969Z,3.33
2023-09-01T22:56:00.302Z,4.68
2023-09-01T22:59:01.698Z,4.32
2023-09-01T23:02:03.041Z,4.20
2023-09-01T23:05:04.391Z,4.82
2023-09-01T23:08:05.757Z,4.55
2023-09-01T23:11:07.103Z,4.47
2023-09-01T23:14:08.416Z,5.40
2023-09-01T23:17:09.785Z,4.60
2023-09-01T23:20:11.110Z,5.22
2023-09-01T23:23:12.482Z,3.92
2023-09-01T23:26:13.859Z,4.47
2023-09-01T23:29:15.228Z,3.70
2023-09-01T23:32:16.592Z,4.53
2023-09-01T23:35:17.940Z,4.32
2023-09-01T23:38:19.308Z,3.53
2023-09-01T23:41:20.704Z,4.55
2023-09-01T23:44:22.051Z,4.50
2023-09-01T23:47:24.492Z,3.73
2023-09-01T23:50:27.793Z,4.28
2023-09-01T23:53:29.114Z,4.13
2023-09-01T23:56:30.480Z,4.88
2023-09-01T23:59:31.823Z,4.75
